Pagrindinis puslapis
METAR-TAF:

METAR-TAF

Oro uostai :

Diurbelis, Senegalas

platuma: 14-39N, ilguma: 016-14W, Aukštis: 7 m

Dabartinis oras

Ataskaita buvo paskelbta 1 valandą ir 9 minutes, ne 11:00 UTC
Vėjas 4 kt iš Pietvakarių
Temperatūra 32°C
Drėgmė 67%
Slėgis 1014 hPa
Matomumas 10 km arba daugiau
Su prošvaistėmis ne aukštis 1500 ft
Išsisklaidę debesys ne aukštis 13000 ft

METAR: GOOD 151100Z 22004KT 9999 BKN015 SCT130 32/25 Q1014

Laikas: 12:09 (12:09 UTC)


TAF: trūkstamas

Orai ataskaitas ir orų prognozės (METAR, TAF).

turimą stotys yra geltonos ir raudonos taškus žemėlapyje.

Perkelti pele per norėdami pamatyti stoties vardą.

Tada spustelėkite, norėdami matyti oro stebėjimo ir prognozės.

Norėdami pakeisti žemėlapį: spustelėkite ant žalios mygtukų su juodo kryžiaus žemyn,; žalią mygtuką su brūkšneliu, jei norite nutolinti; arba žalių rodyklių gretimoms žemėlapius.


METAR-TAF: